createdAt,value
2023-02-03T00:06:10.171Z,1.93
2023-02-03T00:09:20.066Z,1.87
2023-02-03T00:16:29.478Z,1.85
2023-02-03T00:19:40.780Z,1.85
2023-02-03T00:40:28.214Z,1.77
2023-02-03T00:55:37.867Z,1.73
2023-02-03T01:20:31.257Z,1.21
2023-02-03T01:27:30.109Z,0.92
2023-02-03T01:38:27.988Z,1.09
2023-02-03T01:41:41.891Z,1.16
2023-02-03T01:48:59.334Z,1.08
2023-02-03T02:40:36.804Z,0.30
2023-02-03T02:44:23.451Z,0.41
2023-02-03T02:48:10.006Z,0.48
2023-02-03T03:02:34.675Z,0.45
2023-02-03T03:06:02.036Z,0.38
2023-02-03T03:13:25.742Z,0.14
2023-02-03T03:24:09.439Z,0.05
2023-02-03T03:27:29.424Z,0.13
2023-02-03T03:37:56.145Z,0.23
2023-02-03T03:41:18.563Z,0.23
2023-02-03T04:02:39.644Z,0.16
2023-02-03T04:05:43.258Z,0.11
2023-02-03T04:08:45.446Z,0.00
2023-02-03T04:12:03.087Z,0.00
2023-02-03T04:15:05.832Z,0.14
2023-02-03T04:18:11.709Z,0.13
2023-02-03T04:21:14.240Z,0.19
2023-02-03T04:24:19.904Z,0.15
2023-02-03T04:27:23.887Z,0.11
2023-02-03T04:30:26.977Z,0.09
2023-02-03T04:33:32.860Z,0.06
2023-02-03T04:36:37.518Z,0.10
2023-02-03T04:39:43.041Z,0.13
2023-02-03T04:42:45.932Z,0.28
2023-02-03T04:45:53.604Z,0.57
2023-02-03T04:48:56.116Z,0.70
2023-02-03T04:51:59.227Z,0.72
2023-02-03T04:55:05.992Z,0.82
2023-02-03T04:58:10.306Z,0.78
2023-02-03T05:01:17.504Z,0.79
2023-02-03T05:04:21.614Z,0.94
2023-02-03T05:07:29.391Z,0.90
2023-02-03T05:10:32.723Z,0.88
2023-02-03T05:13:35.496Z,0.88
2023-02-03T05:16:37.802Z,0.95
2023-02-03T05:19:43.325Z,0.96
2023-02-03T05:22:46.280Z,1.07
2023-02-03T05:25:48.528Z,1.07
2023-02-03T05:28:56.055Z,1.04
2023-02-03T05:32:01.516Z,1.04
2023-02-03T05:35:04.143Z,1.07
2023-02-03T05:38:07.137Z,1.09
2023-02-03T05:41:32.105Z,1.14
2023-02-03T05:44:35.201Z,1.18
2023-02-03T05:47:40.845Z,1.14
2023-02-03T05:50:48.444Z,1.17
2023-02-03T05:53:56.257Z,1.08
2023-02-03T05:56:59.850Z,1.14
2023-02-03T06:00:02.760Z,1.23
2023-02-03T06:03:06.537Z,1.23
2023-02-03T06:06:09.851Z,1.23
2023-02-03T06:09:17.640Z,1.24
2023-02-03T06:12:20.633Z,1.30
2023-02-03T06:15:23.532Z,1.33
2023-02-03T06:18:26.016Z,1.34
2023-02-03T06:21:36.256Z,1.35
2023-02-03T06:24:39.147Z,1.35
2023-02-03T06:27:42.593Z,1.34
2023-02-03T06:30:44.835Z,1.35
2023-02-03T06:33:48.004Z,1.31
2023-02-03T06:36:52.525Z,1.33
2023-02-03T06:39:57.825Z,1.29
2023-02-03T06:43:00.767Z,1.35
2023-02-03T06:46:06.268Z,1.35
2023-02-03T06:49:12.104Z,1.34
2023-02-03T06:52:19.875Z,1.38
2023-02-03T06:55:25.938Z,1.44
2023-02-03T06:58:28.103Z,1.58
2023-02-03T07:01:31.564Z,1.69
2023-02-03T07:04:37.397Z,1.69
2023-02-03T07:07:40.093Z,1.81
2023-02-03T07:10:47.326Z,1.84
2023-02-03T07:13:50.409Z,1.74
2023-02-03T07:17:00.180Z,1.60
2023-02-03T07:20:04.183Z,1.52
2023-02-03T07:23:09.237Z,1.64
2023-02-03T07:26:19.146Z,1.69
2023-02-03T07:29:22.466Z,1.76
2023-02-03T07:32:27.153Z,1.76
2023-02-03T07:35:29.917Z,1.85
2023-02-03T07:38:33.607Z,1.81
2023-02-03T07:41:39.530Z,1.83
2023-02-03T07:44:46.607Z,1.82
2023-02-03T07:47:56.731Z,1.83
2023-02-03T07:51:02.627Z,1.87
2023-02-03T07:54:10.968Z,1.93
2023-02-03T07:57:20.586Z,1.98
2023-02-03T08:00:22.960Z,1.96
2023-02-03T08:03:28.218Z,1.99
2023-02-03T08:06:34.181Z,1.88
2023-02-03T08:09:40.756Z,1.85
2023-02-03T08:12:49.865Z,1.79
2023-02-03T08:15:55.492Z,1.82
2023-02-03T08:19:02.511Z,1.80
2023-02-03T08:22:08.354Z,1.87
2023-02-03T08:25:18.106Z,1.93
2023-02-03T08:28:21.013Z,1.91
2023-02-03T08:31:24.423Z,1.89
2023-02-03T08:34:39.662Z,1.92
2023-02-03T08:37:42.753Z,1.87
2023-02-03T08:40:49.745Z,1.91
2023-02-03T08:43:56.310Z,1.84
2023-02-03T08:47:03.190Z,1.84
2023-02-03T08:50:06.784Z,1.79
2023-02-03T08:53:10.715Z,1.71
2023-02-03T08:56:14.831Z,1.82
2023-02-03T08:59:23.961Z,1.90
2023-02-03T09:02:42.719Z,1.87
2023-02-03T09:05:50.212Z,1.88
2023-02-03T09:08:55.074Z,1.77
2023-02-03T09:12:05.637Z,1.70
2023-02-03T09:15:09.009Z,1.70
2023-02-03T09:18:14.702Z,1.53
2023-02-03T09:21:33.481Z,1.42
2023-02-03T09:24:42.270Z,1.29
2023-02-03T09:27:46.142Z,1.19
2023-02-03T09:30:48.861Z,1.16
2023-02-03T09:33:56.028Z,1.02
2023-02-03T09:37:04.032Z,0.90
2023-02-03T09:40:08.052Z,0.79
2023-02-03T09:43:15.158Z,0.60
2023-02-03T09:46:23.196Z,0.51
2023-02-03T09:49:30.254Z,0.48
2023-02-03T09:52:35.056Z,0.51
2023-02-03T09:55:41.936Z,0.63
2023-02-03T09:58:46.166Z,0.62
2023-02-03T10:02:10.446Z,0.68
2023-02-03T10:05:31.958Z,0.63
2023-02-03T10:08:44.080Z,0.64
2023-02-03T10:12:07.135Z,0.70
2023-02-03T10:15:42.987Z,0.70
2023-02-03T10:18:51.197Z,0.70
2023-02-03T10:21:58.147Z,0.72
2023-02-03T10:25:06.290Z,0.74
2023-02-03T10:28:26.563Z,0.76
2023-02-03T10:31:32.562Z,0.79
2023-02-03T10:34:35.113Z,0.75
2023-02-03T10:37:49.645Z,0.79
2023-02-03T10:44:23.024Z,0.71
2023-02-03T10:47:35.345Z,0.66
2023-02-03T10:50:41.501Z,0.67
2023-02-03T10:53:43.633Z,0.62
2023-02-03T10:56:45.950Z,0.61
2023-02-03T10:59:48.571Z,0.53
2023-02-03T11:03:02.652Z,0.47
2023-02-03T11:06:06.889Z,0.40
2023-02-03T11:09:22.987Z,0.35
2023-02-03T11:12:25.129Z,0.28
2023-02-03T11:15:27.344Z,0.27
2023-02-03T11:18:32.492Z,0.24
2023-02-03T11:21:37.449Z,0.16
2023-02-03T11:24:41.119Z,0.18
2023-02-03T11:27:44.986Z,0.17
2023-02-03T11:30:55.062Z,0.18
2023-02-03T11:34:02.255Z,0.10
2023-02-03T11:37:26.400Z,-0.01
2023-02-03T11:40:29.710Z,0.01
2023-02-03T11:43:32.448Z,0.00
2023-02-03T11:46:37.236Z,0.01
2023-02-03T11:49:51.678Z,0.02
2023-02-03T11:52:56.573Z,0.01
2023-02-03T11:56:13.904Z,0.04
2023-02-03T11:59:32.399Z,0.04
2023-02-03T12:02:53.182Z,0.02
2023-02-03T12:06:01.492Z,-0.05
2023-02-03T12:09:06.217Z,-0.03
2023-02-03T12:12:47.005Z,0.02
2023-02-03T12:16:15.586Z,0.02
2023-02-03T12:19:30.713Z,0.06
2023-02-03T12:22:51.185Z,0.04
2023-02-03T12:26:11.978Z,0.05
2023-02-03T12:29:20.733Z,0.10
2023-02-03T12:32:22.664Z,0.15
2023-02-03T12:35:36.342Z,0.08
2023-02-03T12:38:43.956Z,0.11
2023-02-03T12:41:54.419Z,0.10
2023-02-03T12:45:06.431Z,0.11
2023-02-03T12:48:14.070Z,0.10
2023-02-03T12:51:20.061Z,0.09
2023-02-03T12:54:35.197Z,0.17
2023-02-03T12:57:55.732Z,0.14
2023-02-03T13:01:05.081Z,0.09
2023-02-03T13:04:11.938Z,-0.03
2023-02-03T13:07:21.403Z,-0.11
2023-02-03T13:10:30.222Z,-0.11
2023-02-03T13:13:39.972Z,-0.08
2023-02-03T13:16:44.935Z,-0.05
2023-02-03T13:19:49.792Z,0.04
2023-02-03T13:22:53.282Z,0.10
2023-02-03T13:26:14.426Z,0.15
2023-02-03T13:29:27.849Z,0.16
2023-02-03T13:32:38.933Z,0.26
2023-02-03T13:35:46.835Z,0.25
2023-02-03T13:38:49.092Z,0.18
2023-02-03T13:41:55.961Z,0.19
2023-02-03T13:45:04.189Z,0.26
2023-02-03T13:48:17.716Z,0.32
2023-02-03T13:51:24.257Z,0.34
2023-02-03T13:54:34.978Z,0.37
2023-02-03T13:57:38.415Z,0.42
2023-02-03T14:00:43.423Z,0.47
2023-02-03T14:03:45.520Z,0.49
2023-02-03T14:06:52.509Z,0.50
2023-02-03T14:10:13.188Z,0.55
2023-02-03T14:13:20.578Z,0.60
2023-02-03T14:16:24.161Z,0.63
2023-02-03T14:19:26.069Z,0.69
2023-02-03T14:22:28.798Z,0.69
2023-02-03T14:25:32.073Z,0.70
2023-02-03T14:28:42.289Z,0.74
2023-02-03T14:31:55.882Z,0.73
2023-02-03T14:34:58.551Z,0.78
2023-02-03T14:38:09.454Z,0.85
2023-02-03T14:41:11.458Z,0.85
2023-02-03T14:44:22.062Z,0.89
2023-02-03T14:47:42.823Z,0.93
2023-02-03T14:50:57.834Z,0.95
2023-02-03T14:54:05.728Z,0.92
2023-02-03T14:57:26.152Z,0.94
2023-02-03T15:00:33.470Z,1.02
2023-02-03T15:03:37.870Z,1.07
2023-02-03T15:06:41.601Z,1.15
2023-02-03T15:09:46.051Z,1.12
2023-02-03T15:12:49.606Z,1.13
2023-02-03T15:15:52.935Z,1.12
2023-02-03T15:18:59.847Z,1.18
2023-02-03T15:22:02.573Z,1.23
2023-02-03T15:25:14.506Z,1.24
2023-02-03T15:28:20.940Z,1.26
2023-02-03T15:31:23.564Z,1.34
2023-02-03T15:34:31.614Z,1.36
2023-02-03T15:37:39.096Z,1.35
2023-02-03T15:40:45.329Z,1.37
2023-02-03T15:43:49.612Z,1.39
2023-02-03T15:46:52.466Z,1.45
2023-02-03T15:50:06.432Z,1.49
2023-02-03T15:53:15.727Z,1.51
2023-02-03T15:56:20.095Z,1.56
2023-02-03T15:59:29.305Z,1.63
2023-02-03T16:02:33.782Z,1.69
2023-02-03T16:05:37.330Z,1.72
2023-02-03T16:08:42.776Z,1.73
2023-02-03T16:11:44.837Z,1.71
2023-02-03T16:14:47.059Z,1.71
2023-02-03T16:17:54.417Z,1.74
2023-02-03T16:20:56.359Z,1.75
2023-02-03T16:23:58.743Z,1.73
2023-02-03T16:27:20.780Z,1.70
2023-02-03T16:30:42.510Z,1.70
2023-02-03T16:34:04.540Z,1.67
2023-02-03T16:37:45.276Z,1.64
2023-02-03T16:41:06.149Z,1.65
2023-02-03T16:44:30.040Z,1.62
2023-02-03T16:47:51.304Z,1.58
2023-02-03T16:50:58.982Z,1.58
2023-02-03T16:54:01.291Z,1.64
2023-02-03T16:57:03.115Z,1.63
2023-02-03T17:00:06.224Z,1.65
2023-02-03T17:03:10.067Z,1.69
2023-02-03T17:06:12.587Z,1.70
2023-02-03T17:09:14.588Z,1.71
2023-02-03T17:12:16.466Z,1.81
2023-02-03T17:15:18.374Z,1.85
2023-02-03T17:18:20.856Z,1.89
2023-02-03T17:21:24.415Z,1.86
2023-02-03T17:24:26.148Z,1.94
2023-02-03T17:27:28.113Z,1.99
2023-02-03T17:30:33.897Z,2.02
2023-02-03T17:33:35.801Z,2.05
2023-02-03T17:36:37.636Z,2.04
2023-02-03T17:56:09.217Z,2.22
2023-02-03T17:59:11.032Z,2.24
2023-02-03T18:02:12.887Z,2.28
2023-02-03T18:05:14.700Z,2.28
2023-02-03T18:08:20.251Z,2.34
2023-02-03T18:11:22.238Z,2.43
2023-02-03T18:14:24.098Z,2.53
2023-02-03T18:17:25.927Z,2.52
2023-02-03T18:20:28.178Z,2.60
2023-02-03T18:23:33.386Z,2.61
2023-02-03T18:26:37.050Z,2.65
2023-02-03T18:29:40.896Z,2.75
2023-02-03T18:32:42.803Z,2.82
2023-02-03T18:35:44.792Z,2.86
2023-02-03T18:38:47.383Z,2.96
2023-02-03T18:41:49.287Z,2.96
2023-02-03T18:44:51.081Z,3.05
2023-02-03T18:47:52.892Z,3.03
2023-02-03T18:50:54.681Z,3.00
2023-02-03T18:53:57.430Z,3.06
2023-02-03T18:56:59.374Z,3.23
2023-02-03T19:00:01.275Z,3.29
2023-02-03T19:03:03.158Z,3.29
2023-02-03T19:06:08.927Z,3.29
2023-02-03T19:09:12.109Z,3.35
2023-02-03T19:12:13.946Z,3.44
2023-02-03T19:15:15.783Z,3.45
2023-02-03T19:18:17.617Z,3.39
2023-02-03T19:21:19.408Z,3.43
2023-02-03T19:24:21.673Z,3.38
2023-02-03T19:27:24.015Z,3.39
2023-02-03T19:30:25.780Z,3.29
2023-02-03T19:33:27.590Z,3.37
2023-02-03T19:36:30.168Z,3.41
2023-02-03T19:39:32.480Z,3.42
2023-02-03T19:42:34.347Z,3.43
2023-02-03T19:45:36.129Z,3.34
2023-02-03T19:48:38.511Z,3.29
2023-02-03T19:51:40.874Z,3.24
2023-02-03T19:54:42.712Z,3.16
2023-02-03T19:57:44.509Z,3.19
2023-02-03T20:00:46.557Z,3.13
2023-02-03T20:03:48.674Z,3.18
2023-02-03T20:06:50.594Z,3.17
2023-02-03T20:09:52.456Z,3.24
2023-02-03T20:12:54.935Z,3.13
2023-02-03T20:15:56.916Z,3.25
2023-02-03T20:19:01.084Z,3.12
2023-02-03T20:22:02.942Z,3.02
2023-02-03T20:25:06.237Z,3.03
2023-02-03T20:28:09.029Z,2.95
2023-02-03T20:31:11.103Z,2.98
2023-02-03T20:34:13.023Z,3.05
2023-02-03T20:37:14.928Z,2.97
2023-02-03T20:40:17.654Z,3.00
2023-02-03T20:43:23.758Z,3.12
2023-02-03T20:46:26.212Z,3.07
2023-02-03T20:49:28.177Z,3.19
2023-02-03T20:52:30.185Z,3.23
2023-02-03T20:55:32.162Z,3.28
2023-02-03T20:58:35.180Z,3.33
2023-02-03T21:01:37.491Z,3.51
2023-02-03T21:04:57.955Z,3.53
2023-02-03T21:08:00.296Z,3.58
2023-02-03T21:11:03.947Z,3.58
2023-02-03T21:14:17.474Z,3.73
2023-02-03T21:17:20.813Z,3.78
2023-02-03T21:20:29.365Z,3.68
2023-02-03T21:23:40.174Z,3.81
2023-02-03T21:26:42.966Z,3.72
2023-02-03T21:29:46.857Z,3.78
2023-02-03T21:32:49.948Z,3.77
2023-02-03T21:35:52.649Z,3.82
2023-02-03T21:38:58.280Z,3.91
2023-02-03T21:42:42.265Z,3.96
2023-02-03T21:45:46.836Z,4.06
2023-02-03T21:48:52.404Z,4.09
2023-02-03T21:51:55.803Z,4.03
2023-02-03T21:55:02.379Z,3.96
2023-02-03T21:58:19.044Z,3.95
2023-02-03T22:01:24.800Z,3.93
2023-02-03T22:04:32.581Z,3.96
2023-02-03T22:07:36.680Z,4.06
2023-02-03T22:10:39.411Z,4.09
2023-02-03T22:13:43.560Z,4.02
2023-02-03T22:16:50.122Z,4.03
2023-02-03T22:19:54.565Z,3.97
2023-02-03T22:23:01.639Z,4.01
2023-02-03T22:26:05.547Z,3.99
2023-02-03T22:29:09.152Z,4.02
2023-02-03T22:32:15.107Z,4.06
2023-02-03T22:35:21.887Z,4.03
2023-02-03T22:38:26.927Z,4.05
2023-02-03T22:41:30.730Z,4.13
2023-02-03T22:44:38.742Z,4.18
2023-02-03T22:47:42.446Z,4.39
2023-02-03T22:50:48.044Z,4.47
2023-02-03T22:53:56.204Z,4.43
2023-02-03T22:57:03.080Z,4.43
2023-02-03T23:00:15.815Z,4.39
2023-02-03T23:03:19.609Z,4.59
2023-02-03T23:06:29.265Z,4.64
2023-02-03T23:09:35.516Z,4.69
2023-02-03T23:12:41.483Z,4.80
2023-02-03T23:15:50.150Z,4.82
2023-02-03T23:18:56.467Z,4.82
2023-02-03T23:22:02.434Z,4.77
2023-02-03T23:25:08.187Z,4.78
2023-02-03T23:28:19.189Z,4.76
2023-02-03T23:31:26.340Z,4.77
2023-02-03T23:34:49.813Z,4.75
2023-02-03T23:37:54.766Z,4.76
2023-02-03T23:40:58.968Z,4.64
2023-02-03T23:44:03.798Z,4.79
2023-02-03T23:47:08.326Z,4.79
2023-02-03T23:50:15.578Z,4.79
2023-02-03T23:53:24.158Z,4.85
2023-02-03T23:56:27.528Z,4.76
2023-02-03T23:59:32.999Z,4.76
